Time;durP1;ratioP1;P1;durP2;ratioP2;P2;SDS_P1;SDS_P2;PMS_P1;PMS_P2;Temp;Humidity;BMP_temperature;BMP_pressure;BME280_temperature;BME280_humidity;BME280_pressure;Samples;Min_cycle;Max_cycle;Signal;HPM_P1;HPM_P2
2021/08/10 08:29:39;;;;;;;4.43;3.20;;;26.80;99.90;;;;;;4479308;31;20449;-74
2021/08/10 08:32:07;;;;;;;4.15;3.15;;;26.90;99.90;;;;;;4467288;32;20297;-74
2021/08/10 08:34:34;;;;;;;4.70;3.40;;;27.30;99.90;;;;;;4446759;32;20134;-73
2021/08/10 08:37:01;;;;;;;5.50;2.90;;;27.90;99.90;;;;;;4438302;32;20197;-73
2021/08/10 08:39:27;;;;;;;3.87;2.90;;;28.40;99.90;;;;;;4437254;32;20158;-73
2021/08/10 08:41:55;;;;;;;5.72;3.10;;;28.80;97.90;;;;;;4438377;32;20565;-73
2021/08/10 08:44:22;;;;;;;3.15;2.80;;;28.40;94.10;;;;;;4437963;32;20142;-72
2021/08/10 08:46:49;;;;;;;4.53;2.70;;;28.60;95.60;;;;;;4437949;32;20226;-73
2021/08/10 08:49:21;;;;;;;3.25;2.80;;;28.50;94.40;;;;;;4437939;32;20139;-73
2021/08/10 08:51:48;;;;;;;3.28;2.95;;;28.50;92.40;;;;;;4437651;32;20433;-72
2021/08/10 08:54:22;;;;;;;5.53;2.95;;;28.40;92.50;;;;;;4440144;32;20178;-73
2021/08/10 08:56:49;;;;;;;5.90;2.80;;;28.80;91.40;;;;;;4452229;32;20150;-73
2021/08/10 08:59:17;;;;;;;3.55;2.75;;;29.30;90.50;;;;;;4451514;32;20162;-73
2021/08/10 09:01:44;;;;;;;4.53;2.78;;;29.50;89.30;;;;;;4453319;32;20330;-73
2021/08/10 09:04:11;;;;;;;3.67;2.65;;;29.60;89.50;;;;;;4441406;32;20228;-73
2021/08/10 09:06:39;;;;;;;4.22;2.72;;;30.10;88.30;;;;;;4448441;32;20193;-71
2021/08/10 09:09:24;;;;;;;3.80;2.58;;;30.40;86.30;;;;;;4453275;32;20172;-73
2021/08/10 09:11:59;;;;;;;3.42;2.28;;;30.70;83.80;;;;;;4446078;32;20393;-73
2021/08/10 09:14:44;;;;;;;3.05;2.40;;;30.50;78.40;;;;;;4444439;32;20252;-74
2021/08/10 09:17:14;;;;;;;4.10;1.87;;;30.50;77.00;;;;;;4445334;32;20205;-72
2021/08/10 09:19:57;;;;;;;2.55;1.60;;;30.30;73.80;;;;;;4451595;32;20174;-74
2021/08/10 09:22:26;;;;;;;3.37;2.17;;;30.30;68.20;;;;;;4450151;32;20154;-73
2021/08/10 09:25:05;;;;;;;4.40;2.00;;;30.50;73.70;;;;;;4445976;32;20138;-72
2021/08/10 09:27:37;;;;;;;1.85;1.62;;;30.30;66.00;;;;;;4452359;32;20165;-74
2021/08/10 09:30:09;;;;;;;3.00;1.65;;;30.10;65.40;;;;;;4452903;32;20141;-72
2021/08/10 09:32:51;;;;;;;3.15;2.05;;;30.50;68.00;;;;;;4450665;32;20399;-73
2021/08/10 09:35:22;;;;;;;3.53;1.90;;;30.60;70.20;;;;;;4450028;32;20223;-73
2021/08/10 09:38:02;;;;;;;2.90;1.90;;;31.00;64.70;;;;;;4437839;32;20150;-73
2021/08/10 09:40:38;;;;;;;3.05;2.03;;;30.60;64.70;;;;;;4442626;32;20484;-73
2021/08/10 09:43:24;;;;;;;2.75;1.92;;;31.00;67.50;;;;;;4442216;32;20168;-73
2021/08/10 09:46:16;;;;;;;7.15;2.35;;;31.30;64.10;;;;;;4437939;32;20515;-70
2021/08/10 09:48:49;;;;;;;2.97;2.20;;;31.40;64.30;;;;;;4432547;32;20658;-70
2021/08/10 09:51:25;;;;;;;3.75;2.33;;;31.60;66.90;;;;;;4438539;32;20208;-69
2021/08/10 09:54:09;;;;;;;4.28;2.80;;;31.30;67.00;;;;;;4442102;32;20126;-70
2021/08/10 09:56:50;;;;;;;4.32;2.50;;;31.10;68.10;;;;;;4441280;32;20338;-70
2021/08/10 09:59:18;;;;;;;4.22;2.60;;;30.70;68.80;;;;;;4440435;32;20154;-70
2021/08/10 10:01:50;;;;;;;2.78;2.50;;;31.30;69.30;;;;;;4440359;32;20510;-70
2021/08/10 10:04:20;;;;;;;2.90;2.40;;;31.60;69.40;;;;;;4441878;32;20146;-70
2021/08/10 10:06:50;;;;;;;3.25;2.47;;;31.90;66.50;;;;;;4441360;32;20196;-70
2021/08/10 10:09:17;;;;;;;4.45;2.37;;;31.20;66.10;;;;;;4442090;32;20176;-70
2021/08/10 10:11:46;;;;;;;5.47;2.28;;;30.80;68.80;;;;;;4441527;32;20434;-70
2021/08/10 10:14:18;;;;;;;2.80;2.37;;;31.60;66.30;;;;;;4440178;32;20158;-70
2021/08/10 10:16:50;;;;;;;2.75;2.00;;;32.30;63.80;;;;;;4440046;32;20437;-69
2021/08/10 10:19:20;;;;;;;3.17;2.30;;;32.20;65.20;;;;;;4439008;32;20401;-71
2021/08/10 10:21:53;;;;;;;4.25;2.10;;;32.60;63.20;;;;;;4429584;32;20146;-70
2021/08/10 10:24:21;;;;;;;2.67;1.92;;;33.00;60.90;;;;;;4424291;32;20542;-70
2021/08/10 10:27:01;;;;;;;2.75;2.00;;;33.20;60.50;;;;;;4435162;32;20154;-70
2021/08/10 10:29:28;;;;;;;4.25;1.92;;;33.00;61.50;;;;;;4438011;32;20178;-70
2021/08/10 10:31:56;;;;;;;4.82;2.42;;;33.30;60.80;;;;;;4440114;32;20139;-70
2021/08/10 10:34:23;;;;;;;2.20;2.00;;;33.80;61.60;;;;;;4440696;32;20222;-69
2021/08/10 10:36:51;;;;;;;3.30;2.40;;;34.10;60.30;;;;;;4440688;32;20142;-69
2021/08/10 10:39:30;;;;;;;3.58;2.20;;;34.30;59.00;;;;;;4439010;32;20561;-70
2021/08/10 10:42:00;;;;;;;2.45;2.17;;;34.30;58.50;;;;;;4439805;32;20142;-70
2021/08/10 10:44:38;;;;;;;3.15;2.10;;;34.20;59.00;;;;;;4440264;32;20210;-69
2021/08/10 10:47:30;;;;;;;3.33;2.25;;;34.40;58.50;;;;;;4440491;32;20131;-69
2021/08/10 10:49:57;;;;;;;2.22;1.95;;;34.70;57.50;;;;;;4441267;32;20192;-71
2021/08/10 10:52:30;;;;;;;2.58;2.00;;;34.80;57.60;;;;;;4437460;32;20178;-69
2021/08/10 10:54:58;;;;;;;2.75;2.00;;;34.80;56.60;;;;;;4428482;32;20207;-69
2021/08/10 10:57:33;;;;;;;3.30;2.30;;;34.40;56.60;;;;;;4430713;32;20557;-71
2021/08/10 11:00:04;;;;;;;3.35;2.10;;;34.10;57.90;;;;;;4436658;32;20141;-69
2021/08/10 11:02:31;;;;;;;2.80;2.22;;;33.90;57.70;;;;;;4434807;32;20461;-69
2021/08/10 11:05:08;;;;;;;2.83;2.20;;;33.30;59.20;;;;;;4432781;32;20241;-69
2021/08/10 11:07:46;;;;;;;3.17;2.30;;;32.50;60.10;;;;;;4428708;32;20143;-71
2021/08/10 11:10:35;;;;;;;2.85;2.37;;;32.70;60.10;;;;;;4437662;32;20202;-71
2021/08/10 11:13:06;;;;;;;5.30;2.50;;;33.00;60.10;;;;;;4439611;32;20476;-71
2021/08/10 11:15:45;;;;;;;3.87;2.70;;;33.20;61.50;;;;;;4439657;32;20497;-71
2021/08/10 11:18:12;;;;;;;3.78;2.60;;;33.20;60.90;;;;;;4440807;32;20224;-69
2021/08/10 11:20:40;;;;;;;4.40;2.80;;;33.00;60.90;;;;;;4440954;32;20150;-69
2021/08/10 11:23:24;;;;;;;2.85;2.53;;;32.80;63.90;;;;;;4440027;32;20147;-69
2021/08/10 11:25:53;;;;;;;4.22;2.60;;;33.30;62.70;;;;;;4441063;32;20338;-70
2021/08/10 11:28:30;;;;;;;2.87;2.58;;;33.70;61.50;;;;;;4438686;32;20206;-69
2021/08/10 11:31:08;;;;;;;5.28;2.80;;;32.60;59.70;;;;;;4438900;32;20147;-69
2021/08/10 11:33:36;;;;;;;3.37;2.62;;;32.10;63.10;;;;;;4440922;32;20176;-72
2021/08/10 11:36:12;;;;;;;3.20;2.60;;;31.10;66.60;;;;;;4438246;32;20177;-69
2021/08/10 11:38:44;;;;;;;3.90;2.92;;;30.10;69.00;;;;;;4440048;32;20134;-69
2021/08/10 11:41:16;;;;;;;3.90;3.00;;;29.60;69.20;;;;;;4438823;32;20178;-70
2021/08/10 11:43:49;;;;;;;5.78;3.17;;;29.80;71.20;;;;;;4439421;32;20234;-69
2021/08/10 11:46:24;;;;;;;6.20;3.00;;;30.00;70.80;;;;;;4439831;32;20416;-70
2021/08/10 11:48:56;;;;;;;4.20;3.15;;;29.30;72.40;;;;;;4440219;32;20181;-69
2021/08/10 11:51:27;;;;;;;3.42;2.75;;;29.10;74.00;;;;;;4435478;32;20603;-69
2021/08/10 11:53:55;;;;;;;5.10;3.22;;;29.10;75.20;;;;;;4432122;32;20200;-69
2021/08/10 11:56:24;;;;;;;4.00;3.20;;;28.90;75.60;;;;;;4425115;32;20186;-69
2021/08/10 11:58:51;;;;;;;3.85;3.10;;;28.80;77.40;;;;;;4422953;32;20197;-70
2021/08/10 12:01:19;;;;;;;4.37;2.97;;;28.30;78.10;;;;;;4425100;32;20123;-71
2021/08/10 12:03:46;;;;;;;6.53;3.28;;;28.10;78.40;;;;;;4424554;32;20127;-69
2021/08/10 12:06:13;;;;;;;3.10;2.80;;;27.70;80.50;;;;;;4424822;32;20422;-70
2021/08/10 12:08:41;;;;;;;4.75;3.37;;;27.80;81.60;;;;;;4423231;32;20134;-70
2021/08/10 12:11:09;;;;;;;4.95;3.15;;;27.90;82.50;;;;;;4423693;32;20188;-70
2021/08/10 12:13:37;;;;;;;4.45;3.40;;;28.00;80.70;;;;;;4423895;32;20155;-70
2021/08/10 12:16:08;;;;;;;4.50;3.10;;;28.00;80.90;;;;;;4424846;32;20135;-70
2021/08/10 12:18:48;;;;;;;4.18;3.00;;;28.20;80.90;;;;;;4424056;32;20286;-70
2021/08/10 12:21:16;;;;;;;4.85;3.15;;;28.30;83.50;;;;;;4423207;32;20175;-70
2021/08/10 12:23:45;;;;;;;5.35;3.15;;;28.30;84.10;;;;;;4424115;32;20179;-69
2021/08/10 12:26:17;;;;;;;4.45;3.28;;;28.30;84.20;;;;;;4423283;32;20464;-72
2021/08/10 12:28:56;;;;;;;5.60;3.40;;;28.30;86.60;;;;;;4428808;32;20155;-71
2021/08/10 12:31:24;;;;;;;5.60;3.37;;;28.50;85.40;;;;;;4434152;32;20207;-71
2021/08/10 12:33:52;;;;;;;5.12;3.08;;;28.50;83.70;;;;;;4430518;32;20521;-70
2021/08/10 12:36:20;;;;;;;4.18;2.95;;;28.40;83.30;;;;;;4432358;32;20142;-71
2021/08/10 12:38:50;;;;;;;4.20;3.40;;;28.60;83.50;;;;;;4430853;32;20142;-71
2021/08/10 12:41:29;;;;;;;4.65;3.20;;;28.40;86.50;;;;;;4431534;32;20212;-72
2021/08/10 12:43:57;;;;;;;5.10;3.58;;;28.40;89.00;;;;;;4430169;32;20142;-73
2021/08/10 12:46:29;;;;;;;3.75;3.00;;;28.30;90.20;;;;;;4433938;32;20480;-73
2021/08/10 12:49:11;;;;;;;5.10;3.50;;;27.80;88.70;;;;;;4432480;32;20134;-74
2021/08/10 12:51:54;;;;;;;5.07;3.12;;;27.30;90.00;;;;;;4439977;32;20393;-72
2021/08/10 12:54:22;;;;;;;5.65;2.90;;;26.50;87.20;;;;;;4438076;32;20169;-72
2021/08/10 12:56:49;;;;;;;4.10;2.78;;;26.00;88.40;;;;;;4438189;32;20202;-72
2021/08/10 12:59:17;;;;;;;5.37;3.22;;;25.20;90.00;;;;;;4439612;32;20239;-72
2021/08/10 13:01:46;;;;;;;4.43;2.90;;;24.70;91.40;;;;;;4439959;32;20157;-72
2021/08/10 13:04:13;;;;;;;4.57;2.92;;;24.40;92.30;;;;;;4439651;32;20242;-72
2021/08/10 13:06:40;;;;;;;3.72;2.37;;;24.00;93.60;;;;;;4438317;32;20127;-73
2021/08/10 13:09:07;;;;;;;4.55;2.67;;;23.60;92.10;;;;;;4439505;32;20509;-73
2021/08/10 13:11:35;;;;;;;5.68;2.40;;;23.40;94.40;;;;;;4438206;32;20150;-72
2021/08/10 13:14:11;;;;;;;4.80;2.30;;;22.80;93.20;;;;;;4438197;32;20472;-71
2021/08/10 13:16:39;;;;;;;3.90;2.30;;;22.00;95.60;;;;;;4442725;32;20126;-72
2021/08/10 13:19:13;;;;;;;5.53;2.50;;;21.60;99.20;;;;;;4441407;32;20130;-70
2021/08/10 13:21:52;;;;;;;4.87;3.03;;;20.80;99.90;;;;;;4442777;32;20122;-69
2021/08/10 13:24:21;;;;;;;4.73;2.73;;;20.30;99.90;;;;;;4442682;32;20156;-71
2021/08/10 13:26:50;;;;;;;6.50;3.10;;;20.00;99.90;;;;;;4441931;32;20159;-70
2021/08/10 13:29:19;;;;;;;8.53;3.97;;;19.80;99.90;;;;;;4440879;32;20154;-69
2021/08/10 13:31:52;;;;;;;8.57;3.90;;;19.70;99.90;;;;;;4441018;32;20134;-68
2021/08/10 13:34:21;;;;;;;7.73;4.20;;;19.60;99.90;;;;;;4440801;32;20405;-68
2021/08/10 13:36:48;;;;;;;7.70;4.30;;;19.60;99.90;;;;;;4442767;32;20457;-69
2021/08/10 13:39:15;;;;;;;10.87;4.40;;;19.60;99.90;;;;;;4441988;32;20255;-70
2021/08/10 13:41:43;;;;;;;9.50;4.43;;;19.70;99.90;;;;;;4441292;32;20150;-70
2021/08/10 13:44:13;;;;;;;8.77;4.13;;;19.80;99.90;;;;;;4440581;32;20198;-68
2021/08/10 13:46:43;;;;;;;8.47;4.10;;;19.80;99.90;;;;;;4441683;32;20180;-68
2021/08/10 13:49:11;;;;;;;6.90;4.30;;;19.70;99.90;;;;;;4442314;32;20347;-71
2021/08/10 13:51:40;;;;;;;8.43;4.33;;;19.60;99.90;;;;;;4442447;32;20130;-67
2021/08/10 13:54:08;;;;;;;7.10;4.63;;;19.50;99.90;;;;;;4440845;32;20134;-68
2021/08/10 13:56:35;;;;;;;8.97;4.70;;;19.40;99.90;;;;;;4440309;32;20135;-67
2021/08/10 13:59:03;;;;;;;7.37;5.13;;;19.20;99.90;;;;;;4440274;32;20435;-68
2021/08/10 14:01:44;;;;;;;7.17;4.43;;;19.20;99.90;;;;;;4441891;32;20394;-69
2021/08/10 14:04:12;;;;;;;5.87;4.60;;;19.30;99.90;;;;;;4441555;32;20158;-68
2021/08/10 14:06:39;;;;;;;8.10;4.97;;;19.40;99.90;;;;;;4440223;32;20162;-69
2021/08/10 14:09:06;;;;;;;8.87;4.97;;;19.40;99.90;;;;;;4441309;32;20168;-68
2021/08/10 14:11:32;;;;;;;6.03;4.43;;;19.40;99.90;;;;;;4441936;32;20215;-71
2021/08/10 14:13:59;;;;;;;7.20;4.37;;;19.40;99.90;;;;;;4439900;32;20445;-69
2021/08/10 14:16:26;;;;;;;6.33;4.57;;;19.30;99.90;;;;;;4440510;32;20242;-69
2021/08/10 14:18:53;;;;;;;6.90;4.50;;;19.30;99.90;;;;;;4440321;32;20196;-69
2021/08/10 14:21:20;;;;;;;6.40;4.70;;;19.30;99.90;;;;;;4441573;32;20130;-68
2021/08/10 14:23:47;;;;;;;8.40;5.60;;;19.00;99.90;;;;;;4441410;32;20246;-69
2021/08/10 14:26:14;;;;;;;7.17;5.33;;;18.80;99.90;;;;;;4440872;32;20151;-69
2021/08/10 14:28:41;;;;;;;7.83;5.73;;;18.60;99.90;;;;;;4439599;32;20162;-68
2021/08/10 14:31:11;;;;;;;8.93;6.20;;;18.50;99.90;;;;;;4441103;32;20130;-69
2021/08/10 14:33:39;;;;;;;12.20;6.17;;;18.50;99.90;;;;;;4439483;32;20442;-69
2021/08/10 14:36:06;;;;;;;8.43;5.30;;;18.40;99.90;;;;;;4441270;32;20210;-70
2021/08/10 14:38:33;;;;;;;9.77;5.30;;;18.40;99.90;;;;;;4439638;32;20214;-70
2021/08/10 14:41:00;;;;;;;11.03;5.30;;;18.40;99.90;;;;;;4440023;32;20207;-70
2021/08/10 14:43:27;;;;;;;7.60;5.53;;;18.40;99.90;;;;;;4440774;32;20127;-70
2021/08/10 14:45:53;;;;;;;6.90;5.30;;;18.40;99.90;;;;;;4441138;32;20557;-68
2021/08/10 14:48:20;;;;;;;7.27;5.00;;;18.50;99.90;;;;;;4440877;32;20194;-69
2021/08/10 14:50:47;;;;;;;7.47;5.20;;;18.50;99.90;;;;;;4441644;32;20134;-69
2021/08/10 14:53:14;;;;;;;9.40;5.40;;;18.50;99.90;;;;;;4439473;32;20411;-69
2021/08/10 14:55:41;;;;;;;8.47;5.23;;;18.50;99.90;;;;;;4441277;32;20176;-70
2021/08/10 14:58:07;;;;;;;9.77;5.33;;;18.60;99.90;;;;;;4441181;32;20221;-69
2021/08/10 15:00:34;;;;;;;6.93;4.90;;;18.60;99.90;;;;;;4440557;32;20150;-68
2021/08/10 15:03:01;;;;;;;7.70;5.03;;;18.50;99.90;;;;;;4425927;32;20124;-69
2021/08/10 15:05:28;;;;;;;8.70;5.77;;;18.50;99.90;;;;;;4423950;32;20150;-69
2021/08/10 15:07:56;;;;;;;7.97;5.27;;;18.40;99.90;;;;;;4425718;32;20127;-69
2021/08/10 15:10:23;;;;;;;9.00;5.57;;;18.40;99.90;;;;;;4425719;32;20182;-70
2021/08/10 15:12:50;;;;;;;8.93;5.43;;;18.40;99.90;;;;;;4425604;32;20433;-73
2021/08/10 15:15:17;;;;;;;7.97;5.80;;;18.30;99.90;;;;;;4425467;32;20177;-69
2021/08/10 15:17:44;;;;;;;8.93;6.30;;;18.20;99.90;;;;;;4423777;32;20123;-70
2021/08/10 15:20:11;;;;;;;10.97;6.50;;;18.20;99.90;;;;;;4423655;32;20147;-70
2021/08/10 15:22:38;;;;;;;8.60;6.00;;;18.30;99.90;;;;;;4423851;32;20123;-70
2021/08/10 15:25:08;;;;;;;10.50;6.40;;;18.30;99.90;;;;;;4423565;32;20461;-70
2021/08/10 15:27:38;;;;;;;10.33;6.47;;;18.20;99.90;;;;;;4423353;32;20158;-70
2021/08/10 15:30:14;;;;;;;9.67;6.40;;;18.20;99.90;;;;;;4423426;32;20150;-70
2021/08/10 15:32:46;;;;;;;10.80;6.23;;;18.10;99.90;;;;;;4424342;32;20127;-73
2021/08/10 15:35:15;;;;;;;9.87;6.20;;;18.00;99.90;;;;;;4440244;32;20170;-70
2021/08/10 15:37:43;;;;;;;9.97;5.47;;;18.00;99.90;;;;;;4440294;32;20552;-71
2021/08/10 15:40:11;;;;;;;6.07;5.00;;;18.00;99.90;;;;;;4439706;32;20150;-71
2021/08/10 15:42:38;;;;;;;7.60;5.83;;;18.10;99.90;;;;;;4440491;32;20131;-70
2021/08/10 15:45:07;;;;;;;6.97;5.73;;;18.60;99.90;;;;;;4440257;32;20355;-68
2021/08/10 15:47:35;;;;;;;6.03;5.00;;;19.60;99.90;;;;;;4438703;32;20127;-70
2021/08/10 15:50:04;;;;;;;7.00;4.50;;;20.60;99.90;;;;;;4440613;32;20138;-70
2021/08/10 15:52:31;;;;;;;5.47;4.17;;;20.60;99.90;;;;;;4440581;32;20184;-69
2021/08/10 15:54:58;;;;;;;6.70;3.90;;;20.70;99.90;;;;;;4440245;32;20134;-69
2021/08/10 15:57:25;;;;;;;4.70;3.67;;;21.10;99.90;;;;;;4440011;32;20127;-69
2021/08/10 15:59:52;;;;;;;6.10;4.20;;;21.60;99.90;;;;;;4440441;32;20134;-71
2021/08/10 16:02:18;;;;;;;5.87;3.50;;;21.60;99.90;;;;;;4440468;32;20127;-70
2021/08/10 16:04:45;;;;;;;4.23;3.30;;;21.40;99.90;;;;;;4437358;32;20183;-71
2021/08/10 16:07:12;;;;;;;6.27;3.60;;;21.30;99.90;;;;;;4438446;32;20127;-70
2021/08/10 16:09:39;;;;;;;3.67;3.20;;;21.80;99.90;;;;;;4440163;32;20146;-70
2021/08/10 16:12:06;;;;;;;4.27;3.37;;;21.60;99.90;;;;;;4439561;32;20198;-70
2021/08/10 16:14:34;;;;;;;5.93;3.43;;;21.30;99.90;;;;;;4440048;32;20166;-71
2021/08/10 16:17:01;;;;;;;3.90;3.30;;;21.00;99.90;;;;;;4438619;32;20161;-71
2021/08/10 16:19:28;;;;;;;5.67;3.47;;;21.10;99.90;;;;;;4440094;32;20506;-71
2021/08/10 16:21:55;;;;;;;3.93;3.20;;;21.70;99.90;;;;;;4440005;32;20456;-72
2021/08/10 16:24:22;;;;;;;4.83;3.17;;;22.30;99.90;;;;;;4439423;32;20198;-71
2021/08/10 16:26:49;;;;;;;5.37;3.30;;;22.90;99.90;;;;;;4439329;32;20480;-72
2021/08/10 16:29:15;;;;;;;5.97;3.37;;;23.00;99.90;;;;;;4438675;32;20196;-72
2021/08/10 16:31:42;;;;;;;3.83;3.20;;;22.60;99.90;;;;;;4439029;32;20448;-73
2021/08/10 16:34:09;;;;;;;4.93;3.53;;;21.90;99.90;;;;;;4438306;32;20499;-73
2021/08/10 16:36:37;;;;;;;4.60;3.07;;;21.30;99.90;;;;;;4438406;32;20418;-73
2021/08/10 16:39:04;;;;;;;7.93;4.00;;;21.00;99.90;;;;;;4438664;32;20158;-73
2021/08/10 16:41:31;;;;;;;4.80;3.90;;;20.70;99.90;;;;;;4438222;32;20246;-73
2021/08/10 16:43:58;;;;;;;5.43;3.63;;;20.30;99.90;;;;;;4438511;32;20180;-72
2021/08/10 16:46:25;;;;;;;7.33;3.93;;;20.00;99.90;;;;;;4440126;32;20146;-73
2021/08/10 16:48:52;;;;;;;4.83;3.93;;;19.80;99.90;;;;;;4438151;32;20179;-71
2021/08/10 16:51:18;;;;;;;5.40;3.67;;;19.60;99.90;;;;;;4440514;32;20179;-74
2021/08/10 16:53:45;;;;;;;4.67;3.53;;;19.50;99.90;;;;;;4442779;32;20131;-73
2021/08/10 16:56:14;;;;;;;8.90;4.00;;;19.30;99.90;;;;;;4442872;32;20172;-74
2021/08/10 16:58:41;;;;;;;6.13;3.70;;;19.20;99.90;;;;;;4442491;32;20153;-73
2021/08/10 17:01:08;;;;;;;5.03;3.60;;;19.10;99.90;;;;;;4441363;32;20191;-74
2021/08/10 17:03:35;;;;;;;4.77;3.70;;;19.00;99.90;;;;;;4440886;32;20531;-74
2021/08/10 17:06:02;;;;;;;6.77;4.57;;;18.90;99.90;;;;;;4441233;32;20218;-74
2021/08/10 17:08:29;;;;;;;4.63;3.90;;;18.80;99.90;;;;;;4442828;32;20214;-73
2021/08/10 17:10:56;;;;;;;5.73;4.10;;;18.80;99.90;;;;;;4441812;32;20181;-73
2021/08/10 17:13:22;;;;;;;4.83;4.10;;;18.70;99.90;;;;;;4441334;32;20183;-73
2021/08/10 17:15:49;;;;;;;4.60;4.10;;;18.50;99.90;;;;;;4442762;32;20165;-72
2021/08/10 17:18:16;;;;;;;6.97;4.20;;;18.60;99.90;;;;;;4441017;32;20138;-73
2021/08/10 17:20:43;;;;;;;5.43;4.30;;;18.50;99.90;;;;;;4440909;32;20187;-74
2021/08/10 17:23:10;;;;;;;6.10;4.47;;;18.40;99.90;;;;;;4440860;32;20179;-72
2021/08/10 17:25:42;;;;;;;5.87;4.03;;;18.40;99.90;;;;;;4442317;32;20131;-72
2021/08/10 17:28:09;;;;;;;5.93;4.33;;;18.30;99.90;;;;;;4442166;32;20200;-71
2021/08/10 17:30:37;;;;;;;5.03;4.10;;;18.30;99.90;;;;;;4440595;32;20151;-73
2021/08/10 17:33:07;;;;;;;6.57;4.30;;;18.20;99.90;;;;;;4442600;32;20226;-73
2021/08/10 17:35:34;;;;;;;5.70;4.70;;;18.20;99.90;;;;;;4442110;32;20465;-73
2021/08/10 17:38:04;;;;;;;7.73;5.87;;;18.10;99.90;;;;;;4442155;32;20366;-72
2021/08/10 17:40:33;;;;;;;6.20;4.90;;;18.10;99.90;;;;;;4440633;32;20183;-73
2021/08/10 17:43:00;;;;;;;7.43;4.13;;;18.00;99.90;;;;;;4442572;32;20505;-73
2021/08/10 17:45:27;;;;;;;5.40;4.60;;;18.00;99.90;;;;;;4440532;32;20134;-72
2021/08/10 17:47:56;;;;;;;6.03;4.10;;;17.90;99.90;;;;;;4442248;32;20158;-73
2021/08/10 17:50:24;;;;;;;6.03;4.20;;;17.80;99.90;;;;;;4441367;32;20134;-73
2021/08/10 17:52:51;;;;;;;5.83;4.50;;;17.80;99.90;;;;;;4442110;32;20165;-73
2021/08/10 17:55:18;;;;;;;6.80;4.10;;;17.80;99.90;;;;;;4442086;32;20130;-73
2021/08/10 17:57:48;;;;;;;7.77;4.20;;;17.70;99.90;;;;;;4441725;32;20242;-73
2021/08/10 18:00:16;;;;;;;6.23;4.47;;;17.70;99.90;;;;;;4441085;32;20162;-73
2021/08/10 18:02:44;;;;;;;6.43;4.53;;;17.60;99.90;;;;;;4440443;32;20138;-73
2021/08/10 18:05:12;;;;;;;5.80;4.47;;;17.60;99.90;;;;;;4441089;32;20127;-73
2021/08/10 18:07:40;;;;;;;6.30;4.67;;;17.60;99.90;;;;;;4440278;32;20175;-72
2021/08/10 18:10:10;;;;;;;5.90;4.70;;;17.50;99.90;;;;;;4439778;32;20143;-73
2021/08/10 18:12:37;;;;;;;5.70;4.87;;;17.50;99.90;;;;;;4441570;32;20499;-73
2021/08/10 18:15:04;;;;;;;6.40;4.53;;;17.50;99.90;;;;;;4441329;32;20189;-71
2021/08/10 18:17:36;;;;;;;6.40;4.63;;;17.50;99.90;;;;;;4441659;32;20157;-72
2021/08/10 18:20:04;;;;;;;6.77;4.90;;;17.40;99.90;;;;;;4441610;32;20139;-72
2021/08/10 18:22:31;;;;;;;5.93;4.73;;;17.40;99.90;;;;;;4440903;32;20165;-73
2021/08/10 18:24:58;;;;;;;8.37;5.23;;;17.40;99.90;;;;;;4440674;32;20203;-74
2021/08/10 18:27:25;;;;;;;7.40;5.47;;;17.20;99.90;;;;;;4440189;32;20153;-71
2021/08/10 18:29:52;;;;;;;8.70;6.30;;;17.10;99.90;;;;;;4440199;32;20139;-70
2021/08/10 18:32:18;;;;;;;10.27;6.40;;;16.90;99.90;;;;;;4440716;32;20127;-70
2021/08/10 18:34:45;;;;;;;8.77;7.07;;;16.80;99.90;;;;;;4440836;32;20424;-70
2021/08/10 18:37:12;;;;;;;10.03;7.23;;;16.70;99.90;;;;;;4440986;32;20511;-70
2021/08/10 18:39:45;;;;;;;10.53;8.00;;;16.60;99.90;;;;;;4441067;32;20166;-69
2021/08/10 18:42:15;;;;;;;10.03;7.77;;;16.70;99.90;;;;;;4441228;32;20196;-70
2021/08/10 18:44:42;;;;;;;9.50;6.93;;;16.70;99.90;;;;;;4440576;32;20122;-69
2021/08/10 18:47:09;;;;;;;10.07;7.43;;;16.70;99.90;;;;;;4441340;32;20482;-69
2021/08/10 18:49:36;;;;;;;9.83;6.97;;;16.60;99.90;;;;;;4440850;32;20425;-70
2021/08/10 18:52:04;;;;;;;8.67;7.00;;;16.60;99.90;;;;;;4440024;32;20119;-70
2021/08/10 18:54:32;;;;;;;9.53;7.63;;;16.60;99.90;;;;;;4439673;32;20184;-70
2021/08/10 18:56:59;;;;;;;10.33;7.07;;;16.60;99.90;;;;;;4440957;32;20139;-69
2021/08/10 18:59:26;;;;;;;9.87;8.00;;;16.60;99.90;;;;;;4439640;32;20166;-71
2021/08/10 19:01:53;;;;;;;10.13;7.33;;;16.60;99.90;;;;;;4440863;32;20184;-70
2021/08/10 19:04:20;;;;;;;9.90;7.50;;;16.60;99.90;;;;;;4440133;32;20384;-69
2021/08/10 19:06:47;;;;;;;9.77;7.13;;;16.60;99.90;;;;;;4439441;32;20130;-70
2021/08/10 19:09:15;;;;;;;11.33;7.23;;;16.60;99.90;;;;;;4440536;32;20183;-69
2021/08/10 19:11:42;;;;;;;7.50;6.53;;;16.60;99.90;;;;;;4440969;32;20206;-69
2021/08/10 19:14:08;;;;;;;8.53;6.07;;;16.60;99.90;;;;;;4440521;32;20138;-70
2021/08/10 19:16:38;;;;;;;9.37;6.90;;;16.50;99.90;;;;;;4441081;32;20180;-71
2021/08/10 19:19:05;;;;;;;9.07;6.43;;;16.50;99.90;;;;;;4439841;32;20158;-69
2021/08/10 19:21:32;;;;;;;9.37;6.50;;;16.50;99.90;;;;;;4440701;32;20135;-70
2021/08/10 19:23:58;;;;;;;8.20;6.30;;;16.50;99.90;;;;;;4441070;32;20175;-69
2021/08/10 19:26:25;;;;;;;6.70;6.00;;;16.40;99.90;;;;;;4439106;32;20343;-69
2021/08/10 19:28:52;;;;;;;7.67;6.40;;;16.40;99.90;;;;;;4438947;32;20162;-70
2021/08/10 19:31:19;;;;;;;7.17;6.20;;;16.40;99.90;;;;;;4440229;32;20433;-69
2021/08/10 19:33:46;;;;;;;6.80;6.07;;;16.40;99.90;;;;;;4438873;32;20138;-70
2021/08/10 19:36:13;;;;;;;8.10;5.40;;;16.40;99.90;;;;;;4440181;32;20123;-70
2021/08/10 19:38:40;;;;;;;8.47;5.70;;;16.40;99.90;;;;;;4440741;32;20180;-71
2021/08/10 19:41:07;;;;;;;8.33;5.53;;;16.40;99.90;;;;;;4439121;32;20460;-69
2021/08/10 19:43:34;;;;;;;7.87;6.10;;;16.40;99.90;;;;;;4439008;32;20143;-68
2021/08/10 19:46:01;;;;;;;8.17;5.97;;;16.30;99.90;;;;;;4440836;32;20134;-69
2021/08/10 19:48:28;;;;;;;9.77;6.20;;;16.30;99.90;;;;;;4440523;32;20454;-69
2021/08/10 19:50:55;;;;;;;8.00;6.00;;;16.30;99.90;;;;;;4440296;32;20138;-69
2021/08/10 19:53:22;;;;;;;7.70;5.90;;;16.30;99.90;;;;;;4439469;32;20135;-71
2021/08/10 19:55:49;;;;;;;8.43;6.17;;;16.30;99.90;;;;;;4440453;32;20126;-69
2021/08/10 19:58:16;;;;;;;7.63;6.20;;;16.20;99.90;;;;;;4440191;32;20500;-69
2021/08/10 20:00:43;;;;;;;9.43;6.70;;;16.10;99.90;;;;;;4440043;32;20146;-69
2021/08/10 20:03:09;;;;;;;8.97;6.27;;;16.20;99.90;;;;;;4438712;32;20193;-69
2021/08/10 20:05:37;;;;;;;6.73;6.03;;;16.10;99.90;;;;;;4438665;32;20150;-69
2021/08/10 20:08:04;;;;;;;8.23;6.20;;;16.10;99.90;;;;;;4439094;32;20399;-70
2021/08/10 20:10:31;;;;;;;8.27;6.37;;;16.10;99.90;;;;;;4438697;32;20169;-70
2021/08/10 20:12:58;;;;;;;8.03;6.40;;;16.10;99.90;;;;;;4440299;32;20333;-70
2021/08/10 20:15:25;;;;;;;8.83;6.60;;;16.00;99.90;;;;;;4439650;32;20158;-70
2021/08/10 20:17:52;;;;;;;8.43;6.67;;;15.90;99.90;;;;;;4439902;32;20123;-69
2021/08/10 20:20:19;;;;;;;9.23;6.97;;;15.90;99.90;;;;;;4438535;32;20127;-69
2021/08/10 20:22:46;;;;;;;9.23;6.70;;;16.00;99.90;;;;;;4440365;32;20122;-70
2021/08/10 20:25:13;;;;;;;10.70;7.43;;;15.90;99.90;;;;;;4440072;32;20158;-69
2021/08/10 20:27:40;;;;;;;10.20;7.57;;;15.90;99.90;;;;;;4440249;32;20465;-69
2021/08/10 20:30:07;;;;;;;10.67;7.50;;;15.90;99.90;;;;;;4438649;32;20226;-70
2021/08/10 20:32:34;;;;;;;9.07;7.07;;;15.90;99.90;;;;;;4438470;32;20123;-70
2021/08/10 20:35:01;;;;;;;8.80;7.23;;;15.90;99.90;;;;;;4437823;32;20187;-70
2021/08/10 20:37:28;;;;;;;9.17;7.63;;;15.90;99.90;;;;;;4438225;32;20131;-69
2021/08/10 20:39:55;;;;;;;11.37;8.10;;;15.90;99.90;;;;;;4437667;32;20218;-69
2021/08/10 20:42:22;;;;;;;10.13;7.93;;;15.90;99.90;;;;;;4440014;32;20448;-69
2021/08/10 20:44:48;;;;;;;10.23;7.43;;;15.80;99.90;;;;;;4439611;32;20171;-69
2021/08/10 20:47:17;;;;;;;11.87;7.93;;;15.90;99.90;;;;;;4437907;32;20226;-69
2021/08/10 20:49:44;;;;;;;12.13;8.00;;;15.80;99.90;;;;;;4439723;32;20190;-70
2021/08/10 20:52:11;;;;;;;11.57;7.80;;;15.80;99.90;;;;;;4436536;32;20142;-69
2021/08/10 20:54:38;;;;;;;11.93;8.30;;;15.80;99.90;;;;;;4439630;32;20271;-69
2021/08/10 20:57:05;;;;;;;12.77;8.17;;;15.80;99.90;;;;;;4438838;32;20245;-69
2021/08/10 20:59:33;;;;;;;9.30;7.83;;;15.80;99.90;;;;;;4439693;32;20196;-69
2021/08/10 21:02:01;;;;;;;9.37;8.00;;;15.80;99.90;;;;;;4438403;32;20134;-69
2021/08/10 21:04:28;;;;;;;10.10;8.13;;;15.80;99.90;;;;;;4438187;32;20223;-69
2021/08/10 21:06:57;;;;;;;10.60;8.63;;;15.80;99.90;;;;;;4438278;32;20146;-69
2021/08/10 21:09:24;;;;;;;13.20;9.20;;;15.80;99.90;;;;;;4439316;32;20135;-71
2021/08/10 21:11:51;;;;;;;13.17;9.83;;;15.80;99.90;;;;;;4439216;32;20357;-70
2021/08/10 21:14:18;;;;;;;10.90;9.00;;;15.90;99.90;;;;;;4437948;32;20222;-68
2021/08/10 21:16:45;;;;;;;11.13;9.50;;;15.80;99.90;;;;;;4440014;32;20154;-69
2021/08/10 21:19:12;;;;;;;11.03;8.97;;;15.80;99.90;;;;;;4438035;32;20172;-69
2021/08/10 21:21:39;;;;;;;12.87;8.80;;;15.80;99.90;;;;;;4439718;32;20406;-69
2021/08/10 21:24:07;;;;;;;11.73;9.10;;;15.80;99.90;;;;;;4439102;32;20135;-70